sensor_id;sensor_type;location;lat;lon;timestamp;P1;durP1;ratioP1;P2;durP2;ratioP2
62110;SDS011;48102;47.526;19.072;2023-05-18T03:51:32;1.12;;;0.80;;
62110;SDS011;48102;47.526;19.072;2023-05-18T03:54:36;1.62;;;0.62;;
62110;SDS011;48102;47.526;19.072;2023-05-18T03:57:40;1.15;;;0.77;;
62110;SDS011;48102;47.526;19.072;2023-05-18T04:00:43;1.05;;;0.73;;
62110;SDS011;48102;47.526;19.072;2023-05-18T04:06:49;0.97;;;0.70;;
62110;SDS011;48102;47.526;19.072;2023-05-18T04:09:55;5.45;;;1.02;;
62110;SDS011;48102;47.526;19.072;2023-05-18T04:16:01;0.70;;;0.50;;
62110;SDS011;48102;47.526;19.072;2023-05-18T04:19:04;2.10;;;0.73;;
62110;SDS011;48102;47.526;19.072;2023-05-18T04:22:10;0.62;;;0.50;;
62110;SDS011;48102;47.526;19.072;2023-05-18T04:25:16;0.50;;;0.50;;
62110;SDS011;48102;47.526;19.072;2023-05-18T04:28:19;2.35;;;0.85;;
62110;SDS011;48102;47.526;19.072;2023-05-18T04:31:22;0.93;;;0.77;;
62110;SDS011;48102;47.526;19.072;2023-05-18T04:37:33;0.40;;;0.40;;
62110;SDS011;48102;47.526;19.072;2023-05-18T04:40:37;1.60;;;0.93;;
62110;SDS011;48102;47.526;19.072;2023-05-18T04:43:44;1.00;;;0.80;;
62110;SDS011;48102;47.526;19.072;2023-05-18T04:46:48;1.15;;;0.93;;
62110;SDS011;48102;47.526;19.072;2023-05-18T04:49:53;1.00;;;0.90;;
62110;SDS011;48102;47.526;19.072;2023-05-18T04:52:57;1.20;;;0.75;;
62110;SDS011;48102;47.526;19.072;2023-05-18T04:56:03;2.28;;;1.00;;
62110;SDS011;48102;47.526;19.072;2023-05-18T04:59:07;1.00;;;0.90;;
62110;SDS011;48102;47.526;19.072;2023-05-18T05:02:10;1.42;;;1.33;;
62110;SDS011;48102;47.526;19.072;2023-05-18T05:05:16;1.65;;;1.40;;
62110;SDS011;48102;47.526;19.072;2023-05-18T05:08:20;1.42;;;1.33;;
62110;SDS011;48102;47.526;19.072;2023-05-18T05:11:23;2.00;;;1.20;;
62110;SDS011;48102;47.526;19.072;2023-05-18T05:14:28;2.12;;;1.48;;
62110;SDS011;48102;47.526;19.072;2023-05-18T05:17:32;1.40;;;1.27;;
62110;SDS011;48102;47.526;19.072;2023-05-18T05:20:35;1.62;;;1.20;;
62110;SDS011;48102;47.526;19.072;2023-05-18T05:23:38;1.55;;;1.17;;
62110;SDS011;48102;47.526;19.072;2023-05-18T05:26:40;1.27;;;1.17;;
62110;SDS011;48102;47.526;19.072;2023-05-18T05:29:47;1.40;;;1.25;;
62110;SDS011;48102;47.526;19.072;2023-05-18T05:32:51;4.12;;;1.10;;
62110;SDS011;48102;47.526;19.072;2023-05-18T05:38:57;1.20;;;1.10;;
62110;SDS011;48102;47.526;19.072;2023-05-18T05:42:01;2.30;;;1.33;;
62110;SDS011;48102;47.526;19.072;2023-05-18T05:45:04;1.27;;;1.08;;
62110;SDS011;48102;47.526;19.072;2023-05-18T05:48:09;2.47;;;1.55;;
62110;SDS011;48102;47.526;19.072;2023-05-18T05:51:15;2.00;;;1.40;;
62110;SDS011;48102;47.526;19.072;2023-05-18T05:54:18;2.67;;;1.37;;
62110;SDS011;48102;47.526;19.072;2023-05-18T05:57:24;4.97;;;1.30;;
62110;SDS011;48102;47.526;19.072;2023-05-18T06:00:27;2.15;;;1.23;;
62110;SDS011;48102;47.526;19.072;2023-05-18T06:03:31;1.12;;;0.93;;
62110;SDS011;48102;47.526;19.072;2023-05-18T06:06:38;1.75;;;1.20;;
62110;SDS011;48102;47.526;19.072;2023-05-18T06:09:42;1.85;;;1.48;;
62110;SDS011;48102;47.526;19.072;2023-05-18T06:12:45;1.73;;;1.30;;
62110;SDS011;48102;47.526;19.072;2023-05-18T06:15:49;1.48;;;1.10;;
62110;SDS011;48102;47.526;19.072;2023-05-18T06:18:51;1.30;;;1.20;;
62110;SDS011;48102;47.526;19.072;2023-05-18T06:24:58;1.87;;;1.40;;
62110;SDS011;48102;47.526;19.072;2023-05-18T06:28:02;2.20;;;1.20;;
62110;SDS011;48102;47.526;19.072;2023-05-18T06:31:05;1.85;;;1.40;;
62110;SDS011;48102;47.526;19.072;2023-05-18T06:34:08;1.42;;;1.33;;
62110;SDS011;48102;47.526;19.072;2023-05-18T06:37:10;2.58;;;1.20;;
62110;SDS011;48102;47.526;19.072;2023-05-18T06:43:17;1.30;;;1.12;;
62110;SDS011;48102;47.526;19.072;2023-05-18T06:46:23;1.95;;;1.25;;
62110;SDS011;48102;47.526;19.072;2023-05-18T06:49:28;1.20;;;1.02;;
62110;SDS011;48102;47.526;19.072;2023-05-18T06:52:31;0.77;;;0.70;;
62110;SDS011;48102;47.526;19.072;2023-05-18T06:55:34;0.52;;;0.40;;
62110;SDS011;48102;47.526;19.072;2023-05-18T06:58:38;1.23;;;0.50;;
62110;SDS011;48102;47.526;19.072;2023-05-18T07:01:42;1.40;;;0.47;;
62110;SDS011;48102;47.526;19.072;2023-05-18T07:04:46;0.52;;;0.40;;
62110;SDS011;48102;47.526;19.072;2023-05-18T07:07:50;0.73;;;0.45;;
62110;SDS011;48102;47.526;19.072;2023-05-18T07:10:53;0.30;;;0.30;;
62110;SDS011;48102;47.526;19.072;2023-05-18T07:13:59;5.47;;;0.70;;
62110;SDS011;48102;47.526;19.072;2023-05-18T07:17:02;0.80;;;0.40;;
62110;SDS011;48102;47.526;19.072;2023-05-18T07:20:06;0.43;;;0.30;;
62110;SDS011;48102;47.526;19.072;2023-05-18T07:23:09;0.70;;;0.60;;
62110;SDS011;48102;47.526;19.072;2023-05-18T07:26:12;0.70;;;0.50;;
62110;SDS011;48102;47.526;19.072;2023-05-18T07:29:15;0.55;;;0.55;;
62110;SDS011;48102;47.526;19.072;2023-05-18T07:32:20;0.90;;;0.50;;
62110;SDS011;48102;47.526;19.072;2023-05-18T07:38:27;0.70;;;0.40;;
62110;SDS011;48102;47.526;19.072;2023-05-18T07:41:30;0.80;;;0.30;;
62110;SDS011;48102;47.526;19.072;2023-05-18T07:44:33;1.67;;;0.50;;
62110;SDS011;48102;47.526;19.072;2023-05-18T07:50:38;0.93;;;0.30;;
62110;SDS011;48102;47.526;19.072;2023-05-18T07:53:41;0.30;;;0.30;;
62110;SDS011;48102;47.526;19.072;2023-05-18T07:56:47;0.32;;;0.32;;
62110;SDS011;48102;47.526;19.072;2023-05-18T07:59:52;1.25;;;0.62;;
62110;SDS011;48102;47.526;19.072;2023-05-18T08:02:54;0.65;;;0.50;;
62110;SDS011;48102;47.526;19.072;2023-05-18T08:05:58;0.20;;;0.20;;
62110;SDS011;48102;47.526;19.072;2023-05-18T08:09:02;0.90;;;0.50;;
62110;SDS011;48102;47.526;19.072;2023-05-18T08:15:08;0.22;;;0.22;;
62110;SDS011;48102;47.526;19.072;2023-05-18T08:18:13;0.30;;;0.25;;
62110;SDS011;48102;47.526;19.072;2023-05-18T08:21:15;0.30;;;0.30;;
62110;SDS011;48102;47.526;19.072;2023-05-18T08:24:19;0.30;;;0.30;;
62110;SDS011;48102;47.526;19.072;2023-05-18T08:30:24;0.55;;;0.32;;
62110;SDS011;48102;47.526;19.072;2023-05-18T08:33:28;1.00;;;0.30;;
62110;SDS011;48102;47.526;19.072;2023-05-18T08:39:38;0.22;;;0.22;;
62110;SDS011;48102;47.526;19.072;2023-05-18T08:46:04;2.50;;;0.40;;
62110;SDS011;48102;47.526;19.072;2023-05-18T08:49:12;0.30;;;0.30;;
62110;SDS011;48102;47.526;19.072;2023-05-18T08:52:18;1.48;;;0.43;;
62110;SDS011;48102;47.526;19.072;2023-05-18T08:55:27;0.50;;;0.50;;
62110;SDS011;48102;47.526;19.072;2023-05-18T08:58:36;0.22;;;0.22;;
62110;SDS011;48102;47.526;19.072;2023-05-18T09:01:52;0.62;;;0.28;;
62110;SDS011;48102;47.526;19.072;2023-05-18T09:04:56;1.45;;;0.30;;
62110;SDS011;48102;47.526;19.072;2023-05-18T09:08:00;1.33;;;0.40;;
62110;SDS011;48102;47.526;19.072;2023-05-18T09:11:04;1.23;;;0.40;;
62110;SDS011;48102;47.526;19.072;2023-05-18T09:14:08;0.25;;;0.25;;
62110;SDS011;48102;47.526;19.072;2023-05-18T09:17:11;0.40;;;0.30;;
62110;SDS011;48102;47.526;19.072;2023-05-18T09:20:14;1.50;;;0.43;;
62110;SDS011;48102;47.526;19.072;2023-05-18T09:23:18;1.73;;;0.45;;
62110;SDS011;48102;47.526;19.072;2023-05-18T09:26:21;0.73;;;0.50;;
62110;SDS011;48102;47.526;19.072;2023-05-18T09:29:24;0.93;;;0.30;;
62110;SDS011;48102;47.526;19.072;2023-05-18T09:35:30;0.35;;;0.20;;
62110;SDS011;48102;47.526;19.072;2023-05-18T09:38:38;0.62;;;0.43;;
62110;SDS011;48102;47.526;19.072;2023-05-18T09:41:45;0.30;;;0.30;;
62110;SDS011;48102;47.526;19.072;2023-05-18T09:47:50;0.30;;;0.28;;
62110;SDS011;48102;47.526;19.072;2023-05-18T09:50:57;0.60;;;0.40;;
62110;SDS011;48102;47.526;19.072;2023-05-18T09:54:02;0.20;;;0.20;;
62110;SDS011;48102;47.526;19.072;2023-05-18T09:57:19;0.52;;;0.37;;
62110;SDS011;48102;47.526;19.072;2023-05-18T10:00:25;0.75;;;0.50;;
62110;SDS011;48102;47.526;19.072;2023-05-18T10:03:40;0.98;;;0.50;;
62110;SDS011;48102;47.526;19.072;2023-05-18T10:06:47;2.20;;;0.50;;
62110;SDS011;48102;47.526;19.072;2023-05-18T10:09:59;0.40;;;0.32;;
62110;SDS011;48102;47.526;19.072;2023-05-18T10:13:04;0.75;;;0.40;;
62110;SDS011;48102;47.526;19.072;2023-05-18T10:16:08;0.95;;;0.50;;
62110;SDS011;48102;47.526;19.072;2023-05-18T10:19:26;0.90;;;0.50;;
62110;SDS011;48102;47.526;19.072;2023-05-18T10:22:31;2.05;;;0.90;;
62110;SDS011;48102;47.526;19.072;2023-05-18T10:25:37;3.03;;;0.60;;
62110;SDS011;48102;47.526;19.072;2023-05-18T10:28:43;1.45;;;0.50;;
62110;SDS011;48102;47.526;19.072;2023-05-18T10:31:49;1.73;;;0.50;;
62110;SDS011;48102;47.526;19.072;2023-05-18T10:34:53;0.90;;;0.50;;
62110;SDS011;48102;47.526;19.072;2023-05-18T10:37:58;0.43;;;0.37;;
62110;SDS011;48102;47.526;19.072;2023-05-18T10:41:03;1.40;;;0.45;;
62110;SDS011;48102;47.526;19.072;2023-05-18T10:44:07;2.37;;;0.60;;
62110;SDS011;48102;47.526;19.072;2023-05-18T10:47:11;2.33;;;0.37;;
62110;SDS011;48102;47.526;19.072;2023-05-18T10:50:17;1.12;;;0.65;;
62110;SDS011;48102;47.526;19.072;2023-05-18T10:53:26;0.32;;;0.30;;
62110;SDS011;48102;47.526;19.072;2023-05-18T10:56:31;0.30;;;0.30;;
62110;SDS011;48102;47.526;19.072;2023-05-18T10:59:39;0.30;;;0.30;;
62110;SDS011;48102;47.526;19.072;2023-05-18T11:02:44;1.12;;;0.40;;
62110;SDS011;48102;47.526;19.072;2023-05-18T11:05:49;0.43;;;0.40;;
62110;SDS011;48102;47.526;19.072;2023-05-18T11:08:53;0.47;;;0.30;;
62110;SDS011;48102;47.526;19.072;2023-05-18T11:11:57;0.50;;;0.50;;
62110;SDS011;48102;47.526;19.072;2023-05-18T11:15:01;0.75;;;0.40;;
62110;SDS011;48102;47.526;19.072;2023-05-18T11:18:12;2.00;;;0.68;;
62110;SDS011;48102;47.526;19.072;2023-05-18T11:24:30;0.68;;;0.47;;
62110;SDS011;48102;47.526;19.072;2023-05-18T11:27:34;0.70;;;0.47;;
62110;SDS011;48102;47.526;19.072;2023-05-18T11:33:41;0.35;;;0.32;;
62110;SDS011;48102;47.526;19.072;2023-05-18T11:36:44;0.40;;;0.40;;
62110;SDS011;48102;47.526;19.072;2023-05-18T11:39:53;0.30;;;0.30;;
62110;SDS011;48102;47.526;19.072;2023-05-18T11:43:02;0.30;;;0.30;;
62110;SDS011;48102;47.526;19.072;2023-05-18T11:46:05;0.70;;;0.50;;
62110;SDS011;48102;47.526;19.072;2023-05-18T11:49:31;0.52;;;0.47;;
62110;SDS011;48102;47.526;19.072;2023-05-18T11:52:44;0.65;;;0.55;;
62110;SDS011;48102;47.526;19.072;2023-05-18T11:55:51;1.02;;;0.60;;
62110;SDS011;48102;47.526;19.072;2023-05-18T11:59:10;0.70;;;0.50;;
62110;SDS011;48102;47.526;19.072;2023-05-18T12:02:18;0.52;;;0.50;;
62110;SDS011;48102;47.526;19.072;2023-05-18T12:05:23;0.60;;;0.50;;
62110;SDS011;48102;47.526;19.072;2023-05-18T12:11:31;1.60;;;0.50;;
62110;SDS011;48102;47.526;19.072;2023-05-18T12:14:34;0.50;;;0.40;;
62110;SDS011;48102;47.526;19.072;2023-05-18T12:17:38;0.90;;;0.68;;
62110;SDS011;48102;47.526;19.072;2023-05-18T12:20:44;0.20;;;0.20;;
62110;SDS011;48102;47.526;19.072;2023-05-18T12:23:48;0.50;;;0.43;;
62110;SDS011;48102;47.526;19.072;2023-05-18T12:26:51;1.23;;;0.50;;
62110;SDS011;48102;47.526;19.072;2023-05-18T12:29:54;0.90;;;0.50;;
62110;SDS011;48102;47.526;19.072;2023-05-18T12:32:57;0.85;;;0.60;;
62110;SDS011;48102;47.526;19.072;2023-05-18T12:36:01;0.52;;;0.50;;
62110;SDS011;48102;47.526;19.072;2023-05-18T12:39:03;0.40;;;0.40;;
62110;SDS011;48102;47.526;19.072;2023-05-18T12:42:13;1.40;;;0.50;;
62110;SDS011;48102;47.526;19.072;2023-05-18T12:45:17;0.47;;;0.37;;
62110;SDS011;48102;47.526;19.072;2023-05-18T12:51:31;1.75;;;0.50;;
62110;SDS011;48102;47.526;19.072;2023-05-18T12:54:47;4.47;;;0.50;;
62110;SDS011;48102;47.526;19.072;2023-05-18T12:58:05;1.20;;;0.50;;
62110;SDS011;48102;47.526;19.072;2023-05-18T13:01:17;0.85;;;0.40;;
62110;SDS011;48102;47.526;19.072;2023-05-18T13:04:19;1.85;;;0.62;;
62110;SDS011;48102;47.526;19.072;2023-05-18T13:07:24;0.35;;;0.35;;
62110;SDS011;48102;47.526;19.072;2023-05-18T13:10:31;0.32;;;0.30;;
62110;SDS011;48102;47.526;19.072;2023-05-18T13:13:34;0.30;;;0.30;;
62110;SDS011;48102;47.526;19.072;2023-05-18T13:16:37;0.55;;;0.50;;
62110;SDS011;48102;47.526;19.072;2023-05-18T13:19:46;0.65;;;0.45;;
62110;SDS011;48102;47.526;19.072;2023-05-18T13:22:49;0.40;;;0.35;;
62110;SDS011;48102;47.526;19.072;2023-05-18T13:25:53;1.08;;;0.50;;
62110;SDS011;48102;47.526;19.072;2023-05-18T13:28:59;0.40;;;0.30;;
62110;SDS011;48102;47.526;19.072;2023-05-18T13:32:02;1.23;;;0.43;;
62110;SDS011;48102;47.526;19.072;2023-05-18T13:35:05;0.60;;;0.40;;
62110;SDS011;48102;47.526;19.072;2023-05-18T13:38:09;0.73;;;0.37;;
62110;SDS011;48102;47.526;19.072;2023-05-18T13:41:13;0.40;;;0.37;;
62110;SDS011;48102;47.526;19.072;2023-05-18T13:44:16;1.65;;;0.50;;
62110;SDS011;48102;47.526;19.072;2023-05-18T13:50:22;0.47;;;0.37;;
62110;SDS011;48102;47.526;19.072;2023-05-18T13:53:27;0.43;;;0.40;;
62110;SDS011;48102;47.526;19.072;2023-05-18T13:56:30;0.75;;;0.40;;
62110;SDS011;48102;47.526;19.072;2023-05-18T14:02:38;0.50;;;0.30;;
62110;SDS011;48102;47.526;19.072;2023-05-18T14:05:42;0.80;;;0.30;;
62110;SDS011;48102;47.526;19.072;2023-05-18T14:08:45;1.40;;;0.75;;
62110;SDS011;48102;47.526;19.072;2023-05-18T14:14:54;0.40;;;0.30;;
62110;SDS011;48102;47.526;19.072;2023-05-18T14:17:57;0.37;;;0.35;;
62110;SDS011;48102;47.526;19.072;2023-05-18T14:21:00;0.35;;;0.35;;
62110;SDS011;48102;47.526;19.072;2023-05-18T14:24:05;0.50;;;0.50;;
62110;SDS011;48102;47.526;19.072;2023-05-18T14:27:09;1.42;;;0.43;;
62110;SDS011;48102;47.526;19.072;2023-05-18T14:33:15;0.70;;;0.52;;
62110;SDS011;48102;47.526;19.072;2023-05-18T14:36:18;0.50;;;0.30;;
62110;SDS011;48102;47.526;19.072;2023-05-18T14:39:23;0.50;;;0.50;;
62110;SDS011;48102;47.526;19.072;2023-05-18T14:45:29;0.85;;;0.30;;
62110;SDS011;48102;47.526;19.072;2023-05-18T14:51:34;1.20;;;0.37;;
62110;SDS011;48102;47.526;19.072;2023-05-18T14:54:37;2.58;;;0.40;;
62110;SDS011;48102;47.526;19.072;2023-05-18T14:57:41;0.50;;;0.40;;
62110;SDS011;48102;47.526;19.072;2023-05-18T15:00:46;0.62;;;0.40;;
62110;SDS011;48102;47.526;19.072;2023-05-18T15:03:49;2.60;;;0.32;;
62110;SDS011;48102;47.526;19.072;2023-05-18T15:09:55;0.37;;;0.32;;
62110;SDS011;48102;47.526;19.072;2023-05-18T15:16:00;0.80;;;0.47;;
62110;SDS011;48102;47.526;19.072;2023-05-18T15:19:04;0.45;;;0.30;;
62110;SDS011;48102;47.526;19.072;2023-05-18T15:25:10;1.37;;;0.35;;
62110;SDS011;48102;47.526;19.072;2023-05-18T15:28:12;1.33;;;0.70;;
62110;SDS011;48102;47.526;19.072;2023-05-18T15:34:19;1.62;;;0.32;;
62110;SDS011;48102;47.526;19.072;2023-05-18T15:37:22;1.12;;;0.40;;
62110;SDS011;48102;47.526;19.072;2023-05-18T15:40:25;1.20;;;0.60;;
62110;SDS011;48102;47.526;19.072;2023-05-18T15:46:31;0.50;;;0.32;;
62110;SDS011;48102;47.526;19.072;2023-05-18T15:49:37;0.60;;;0.47;;
62110;SDS011;48102;47.526;19.072;2023-05-18T15:52:39;0.30;;;0.30;;
62110;SDS011;48102;47.526;19.072;2023-05-18T15:55:43;3.47;;;0.55;;
62110;SDS011;48102;47.526;19.072;2023-05-18T15:58:46;0.93;;;0.50;;
62110;SDS011;48102;47.526;19.072;2023-05-18T16:01:49;0.70;;;0.52;;
62110;SDS011;48102;47.526;19.072;2023-05-18T16:07:55;0.30;;;0.30;;
